createdAt,value
2017-10-08T00:01:53.202Z,1949.24
2017-10-08T00:13:50.086Z,1960.3
2017-10-08T00:25:46.542Z,1942.56
2017-10-08T00:37:43.402Z,1927.79
2017-10-08T00:49:39.683Z,1949.89
2017-10-08T01:01:35.045Z,1963.89
2017-10-08T01:13:31.846Z,1965.18
2017-10-08T01:25:28.485Z,1984.2
2017-10-08T01:37:26.127Z,2000
2017-10-08T01:49:23.209Z,1996.15
2017-10-08T02:01:19.805Z,1987.15
2017-10-08T02:13:16.152Z,1981.37
2017-10-08T02:25:11.246Z,1983.94
2017-10-08T02:37:07.870Z,1976.36
2017-10-08T02:49:04.427Z,1989.08
2017-10-08T03:01:00.667Z,1980.98
2017-10-08T03:12:56.991Z,1979.44
2017-10-08T03:24:53.264Z,1970.45
2017-10-08T03:36:49.713Z,1990.49
2017-10-08T03:48:45.940Z,1995.76
2017-10-08T04:00:42.163Z,1989.08
2017-10-08T04:12:38.405Z,1993.19
2017-10-08T04:24:35.673Z,1937.42
2017-10-08T04:36:33.085Z,1984.2
2017-10-08T04:48:29.386Z,1971.73
2017-10-08T05:00:25.927Z,1997.56
2017-10-08T05:12:22.465Z,1986.25
2017-10-08T05:24:18.603Z,1990.49
2017-10-08T05:36:14.989Z,1989.08
2017-10-08T05:48:11.962Z,1983.81
2017-10-08T06:00:08.446Z,1998.33
2017-10-08T06:12:04.767Z,1992.29
2017-10-08T06:24:01.622Z,1982.65
2017-10-08T06:35:58.866Z,1992.68
2017-10-08T06:47:55.452Z,1980.6
2017-10-08T06:59:52.047Z,1980.85
2017-10-08T07:11:48.225Z,1978.54
2017-10-08T07:23:45.170Z,1980.08
2017-10-08T07:35:42.409Z,1997.82
2017-10-08T07:47:39.168Z,1998.97
2017-10-08T07:59:36.549Z,1998.2
2017-10-08T08:11:33.929Z,1999.49
2017-10-08T08:23:30.566Z,1999.74
2017-10-08T08:35:27.702Z,1997.17
2017-10-08T08:47:22.964Z,1999.87
2017-10-08T08:59:20.362Z,1992.29
2017-10-08T09:11:18.273Z,1994.6
2017-10-08T09:23:16.705Z,1995.5
2017-10-08T09:35:14.949Z,1999.61
2017-10-08T09:47:13.565Z,1998.97
2017-10-08T09:59:12.926Z,1999.87
2017-10-08T10:11:12.469Z,2000
2017-10-08T10:23:13.846Z,1986.12
2017-10-08T10:35:14.707Z,1999.74
2017-10-08T10:47:14.010Z,2000
2017-10-08T10:59:12.088Z,2000
2017-10-08T11:11:11.781Z,2000
2017-10-08T11:23:12.141Z,2000
2017-10-08T11:35:14.773Z,2000
2017-10-08T11:47:18.591Z,2000
2017-10-08T11:59:17.604Z,1999.87
2017-10-08T12:11:17.445Z,2000
2017-10-08T12:23:17.648Z,2000
2017-10-08T12:35:17.714Z,1975.2
2017-10-08T12:47:16.469Z,1996.53
2017-10-08T12:59:14.348Z,1982.65
2017-10-08T13:11:13.800Z,1961.58
2017-10-08T13:23:12.773Z,1969.8
2017-10-08T13:35:12.186Z,1978.93
2017-10-08T13:47:10.688Z,1961.71
2017-10-08T13:59:09.407Z,1998.59
2017-10-08T14:11:16.327Z,1986.12
2017-10-08T14:23:14.622Z,1925.73
2017-10-08T14:35:13.583Z,1981.37
2017-10-08T14:47:11.065Z,1985.48
2017-10-08T14:59:08.514Z,2000
2017-10-08T15:11:06.210Z,1994.47
2017-10-08T15:23:03.328Z,1969.03
2017-10-08T15:35:07.008Z,1992.03
2017-10-08T15:47:06.863Z,1980.73
2017-10-08T15:59:07.085Z,1984.32
2017-10-08T16:11:09.602Z,1993.83
2017-10-08T16:23:11.522Z,1995.5
2017-10-08T16:35:12.523Z,2000
2017-10-08T16:47:12.505Z,1987.79
2017-10-08T16:59:15.029Z,1985.61
2017-10-08T17:11:13.065Z,1998.97
2017-10-08T17:23:14.965Z,1999.74
2017-10-08T17:35:16.646Z,2000
2017-10-08T17:47:13.986Z,2000
2017-10-08T17:59:12.047Z,2000
2017-10-08T18:11:08.843Z,2000
2017-10-08T18:23:05.694Z,2000
2017-10-08T18:35:02.531Z,2000
2017-10-08T18:46:59.107Z,2000
2017-10-08T18:58:55.752Z,2000
2017-10-08T19:10:53.327Z,2000
2017-10-08T19:22:52.389Z,2000
2017-10-08T19:34:48.259Z,2000
2017-10-08T19:46:46.111Z,2000
2017-10-08T19:58:44.327Z,2000
2017-10-08T20:10:42.204Z,2000
2017-10-08T20:22:39.325Z,2000
2017-10-08T20:34:35.943Z,2000
2017-10-08T20:46:32.344Z,2000
2017-10-08T20:58:28.745Z,2000
2017-10-08T21:10:25.460Z,2000
2017-10-08T21:22:22.050Z,2000
2017-10-08T21:34:18.482Z,2000
2017-10-08T21:46:15.009Z,2000
2017-10-08T21:58:09.124Z,2000
2017-10-08T22:10:04.763Z,2000
2017-10-08T22:22:00.244Z,2000
2017-10-08T22:33:55.823Z,2000
2017-10-08T22:45:50.868Z,2000
2017-10-08T22:57:46.487Z,2000
2017-10-08T23:09:42.363Z,2000
2017-10-08T23:21:39.115Z,2000
2017-10-08T23:33:34.668Z,2000
2017-10-08T23:45:30.170Z,2000
2017-10-08T23:57:25.843Z,2000
